Time;durP1;ratioP1;P1;durP2;ratioP2;P2;SDS_P1;SDS_P2;PMS_P1;PMS_P2;Temp;Humidity;BMP_temperature;BMP_pressure;BME280_temperature;BME280_humidity;BME280_pressure;Samples;Min_cycle;Max_cycle;Signal;HPM_P1;HPM_P2
2024/02/11 00:01:58;;;;;;;26.33;20.90;;;6.60;99.90;;;6.10;100.00;95063.53;5061281;28;20460;-74
2024/02/11 00:04:25;;;;;;;28.03;21.87;;;6.50;99.90;;;5.92;100.00;95003.13;5061296;28;20475;-72
2024/02/11 00:06:54;;;;;;;27.63;21.33;;;6.60;99.90;;;6.06;100.00;95008.84;5069729;28;20463;-74
2024/02/11 00:09:21;;;;;;;28.43;21.20;;;6.70;99.90;;;6.49;100.00;95057.84;5048360;28;20469;-73
2024/02/11 00:11:51;;;;;;;28.23;22.43;;;6.80;99.90;;;6.30;100.00;95045.97;5069112;28;20484;-74
2024/02/11 00:14:19;;;;;;;29.33;22.07;;;6.80;99.90;;;6.21;100.00;95064.41;5062068;28;20539;-72
2024/02/11 00:16:46;;;;;;;26.30;20.30;;;6.70;99.90;;;5.98;100.00;95057.53;5062655;28;20517;-76
2024/02/11 00:19:14;;;;;;;31.70;23.00;;;6.50;99.90;;;5.90;100.00;95048.94;5067602;28;20463;-75
2024/02/11 00:21:42;;;;;;;28.37;21.60;;;6.50;99.90;;;6.14;100.00;95056.63;5067415;28;20449;-74
2024/02/11 00:24:09;;;;;;;29.57;21.93;;;6.50;99.90;;;6.37;100.00;95059.94;5050141;28;20495;-73
2024/02/11 00:26:38;;;;;;;26.07;21.27;;;6.70;99.90;;;6.40;100.00;95056.72;5060215;28;21183;-76
2024/02/11 00:29:07;;;;;;;24.10;20.10;;;6.70;99.90;;;6.35;100.00;95046.00;5053864;28;20448;-73
2024/02/11 00:31:35;;;;;;;28.93;21.60;;;6.80;99.90;;;6.18;100.00;95052.34;5037919;28;20563;-72
2024/02/11 00:34:04;;;;;;;31.47;23.80;;;6.70;99.90;;;6.16;100.00;95045.63;5061079;28;21421;-75
2024/02/11 00:36:31;;;;;;;27.57;21.47;;;6.60;99.90;;;6.26;100.00;95051.03;5063801;28;20447;-74
2024/02/11 00:38:58;;;;;;;25.60;21.13;;;6.70;99.90;;;6.27;100.00;95046.47;5062911;28;20457;-73
2024/02/11 00:41:28;;;;;;;28.80;21.80;;;6.70;99.90;;;6.18;100.00;95055.03;5067573;28;20461;-73
2024/02/11 00:43:57;;;;;;;30.77;22.90;;;6.70;99.90;;;5.90;100.00;95048.94;5066004;28;20483;-72
2024/02/11 00:46:26;;;;;;;30.07;22.50;;;6.50;99.90;;;5.82;100.00;95062.81;5067688;28;20845;-74
2024/02/11 00:48:53;;;;;;;26.73;22.33;;;6.40;99.90;;;5.64;100.00;95051.44;5043020;28;20445;-72
2024/02/11 00:51:20;;;;;;;31.77;23.27;;;6.20;99.90;;;5.66;100.00;95065.38;5066015;28;20480;-75
2024/02/11 00:53:48;;;;;;;26.23;21.47;;;6.20;99.90;;;5.81;100.00;95067.38;5047718;28;20593;-75
2024/02/11 00:56:15;;;;;;;29.17;22.27;;;6.20;99.90;;;5.90;100.00;95064.19;5067486;28;20913;-74
2024/02/11 00:58:42;;;;;;;29.10;22.73;;;6.40;99.90;;;5.84;100.00;95071.41;5048578;28;20464;-75
2024/02/11 01:01:10;;;;;;;29.47;21.60;;;6.40;99.90;;;5.83;100.00;95072.44;5067928;28;20452;-78
2024/02/11 01:03:38;;;;;;;25.70;21.00;;;6.40;99.90;;;5.82;100.00;95068.16;5067274;28;20535;-74
2024/02/11 01:06:06;;;;;;;25.83;20.80;;;6.40;99.90;;;5.73;100.00;95067.84;5065064;28;20453;-70
2024/02/11 01:08:33;;;;;;;29.80;22.50;;;6.40;99.90;;;5.74;100.00;95071.34;5069415;28;20536;-72
2024/02/11 01:11:01;;;;;;;25.33;21.90;;;6.30;99.90;;;5.65;100.00;95073.69;5067019;28;20798;-70
2024/02/11 01:13:29;;;;;;;26.60;20.70;;;6.30;99.90;;;5.61;100.00;95076.06;5067318;28;21024;-74
2024/02/11 01:15:56;;;;;;;25.40;22.20;;;6.20;99.90;;;5.56;100.00;95070.66;5055385;28;20465;-73
2024/02/11 01:18:24;;;;;;;28.77;22.00;;;6.10;99.90;;;5.46;100.00;95081.28;5047839;28;20461;-75
2024/02/11 01:20:53;;;;;;;26.43;20.93;;;6.10;99.90;;;5.45;100.00;95068.97;5065802;28;20452;-74
2024/02/11 01:23:21;;;;;;;25.10;20.10;;;6.00;99.90;;;5.48;100.00;95079.16;5058394;28;21275;-77
2024/02/11 01:25:49;;;;;;;25.87;21.33;;;6.00;99.90;;;5.46;100.00;95075.94;5062653;28;20486;-74
2024/02/11 01:28:17;;;;;;;28.30;20.70;;;6.10;99.90;;;5.43;100.00;95081.81;5048229;28;20456;-74
2024/02/11 01:30:45;;;;;;;25.83;20.40;;;6.00;99.90;;;5.36;100.00;95065.94;5049254;28;20453;-73
2024/02/11 01:33:13;;;;;;;29.83;20.97;;;6.00;99.90;;;5.44;100.00;95072.72;5046149;28;20563;-74
2024/02/11 01:35:41;;;;;;;26.93;19.13;;;6.00;99.90;;;5.43;100.00;95071.88;5046439;28;21290;-74
2024/02/11 01:38:11;;;;;;;24.13;20.53;;;6.00;99.90;;;5.29;100.00;95074.19;5065850;28;20460;-75
2024/02/11 01:40:40;;;;;;;25.90;21.37;;;5.90;99.90;;;5.09;100.00;95051.53;5048433;28;21162;-71
2024/02/11 01:43:09;;;;;;;29.73;21.57;;;5.80;99.90;;;5.20;100.00;95094.44;5050756;28;20487;-71
2024/02/11 01:45:36;;;;;;;25.43;19.57;;;5.70;99.90;;;5.32;100.00;95092.41;5049932;28;20554;-72
2024/02/11 01:48:05;;;;;;;26.90;21.47;;;5.80;99.90;;;5.30;100.00;95097.22;5061969;28;21013;-69
2024/02/11 01:50:35;;;;;;;29.10;22.10;;;5.90;99.90;;;5.28;100.00;95096.66;5043971;28;20460;-73
2024/02/11 01:53:04;;;;;;;25.17;21.10;;;5.90;99.90;;;5.24;100.00;95106.28;5045871;28;21289;-68
2024/02/11 01:55:35;;;;;;;27.10;20.73;;;5.90;99.90;;;5.15;100.00;95097.06;5066221;28;20449;-75
2024/02/11 01:58:03;;;;;;;35.53;23.13;;;5.80;99.90;;;5.18;100.00;95104.59;5056417;28;20498;-69
2024/02/11 02:00:30;;;;;;;32.07;22.37;;;5.80;99.90;;;5.28;100.00;95112.72;5060894;28;20448;-72
2024/02/11 02:02:58;;;;;;;30.10;22.10;;;5.80;99.90;;;5.18;100.00;95092.03;5062141;28;20929;-75
2024/02/11 02:05:25;;;;;;;30.50;22.80;;;5.80;99.90;;;5.27;100.00;95111.13;5065407;28;20809;-75
2024/02/11 02:07:54;;;;;;;30.07;24.13;;;5.80;99.90;;;5.43;100.00;95100.56;5065872;28;20888;-73
2024/02/11 02:10:22;;;;;;;30.73;25.00;;;5.90;99.90;;;5.41;100.00;95106.16;5065717;28;20449;-76
2024/02/11 02:12:50;;;;;;;34.83;26.03;;;6.00;99.90;;;5.42;100.00;95113.13;5062304;28;20488;-72
2024/02/11 02:15:18;;;;;;;34.73;25.73;;;6.00;99.90;;;5.53;100.00;95120.19;5058786;28;20472;-73
2024/02/11 02:17:46;;;;;;;32.47;25.10;;;6.10;99.90;;;5.63;100.00;95116.78;5065584;28;20932;-73
2024/02/11 02:20:14;;;;;;;33.50;25.00;;;6.20;99.90;;;5.53;100.00;95116.69;5043691;28;20459;-72
2024/02/11 02:22:43;;;;;;;32.10;24.43;;;6.20;99.90;;;5.58;100.00;95121.28;5064705;28;20471;-75
2024/02/11 02:25:10;;;;;;;28.17;23.50;;;6.20;99.90;;;5.55;100.00;95122.63;5065613;28;20456;-74
2024/02/11 02:27:38;;;;;;;27.03;21.43;;;6.20;99.90;;;5.59;100.00;95118.38;5061618;28;20492;-73
2024/02/11 02:30:07;;;;;;;29.93;22.83;;;6.20;99.90;;;5.66;100.00;95124.31;5057433;28;20495;-74
2024/02/11 02:32:37;;;;;;;25.17;19.80;;;6.20;99.90;;;5.65;100.00;95114.66;5047299;28;20999;-72
2024/02/11 02:35:06;;;;;;;27.43;22.20;;;6.20;99.90;;;5.60;100.00;95109.28;5056398;28;20458;-74
2024/02/11 02:37:33;;;;;;;25.27;21.47;;;6.30;99.90;;;5.74;100.00;95124.91;5055127;28;20469;-73
2024/02/11 02:40:02;;;;;;;25.87;20.40;;;6.40;99.90;;;5.88;100.00;95128.78;5032865;28;20535;-67
2024/02/11 02:42:29;;;;;;;25.17;20.47;;;6.40;99.90;;;5.96;100.00;95122.13;5066834;28;20452;-71
2024/02/11 02:44:56;;;;;;;28.43;21.30;;;6.50;99.90;;;6.04;100.00;95120.88;5066183;28;20459;-73
2024/02/11 02:47:23;;;;;;;24.00;21.13;;;6.60;99.90;;;5.97;100.00;95129.13;5068098;28;20459;-70
2024/02/11 02:49:51;;;;;;;27.10;21.30;;;6.60;99.90;;;6.05;100.00;95125.97;5053323;28;20454;-71
2024/02/11 02:52:18;;;;;;;24.33;20.50;;;6.60;99.90;;;6.19;100.00;95129.03;5072003;28;20530;-74
2024/02/11 02:54:45;;;;;;;26.50;21.60;;;6.70;99.90;;;6.23;100.00;95135.47;5051837;28;20460;-71
2024/02/11 02:57:13;;;;;;;24.90;20.47;;;6.80;99.90;;;6.23;100.00;95132.81;5046619;28;20459;-74
2024/02/11 02:59:41;;;;;;;28.00;21.10;;;6.80;99.90;;;6.33;100.00;95132.06;5050447;28;20452;-75
2024/02/11 03:02:08;;;;;;;24.10;19.70;;;6.90;99.90;;;6.34;100.00;95148.97;5069895;28;20452;-75
2024/02/11 03:04:37;;;;;;;22.63;19.43;;;6.90;99.90;;;6.29;100.00;95151.59;5050789;28;21023;-74
2024/02/11 03:07:06;;;;;;;25.33;21.00;;;7.00;99.90;;;6.38;100.00;95160.78;5069907;28;20544;-75
2024/02/11 03:09:35;;;;;;;24.30;19.27;;;7.00;99.90;;;6.49;100.00;95157.09;5068346;28;20441;-72
2024/02/11 03:12:02;;;;;;;25.03;19.17;;;7.10;99.90;;;6.58;100.00;95161.97;5069493;28;20571;-76
2024/02/11 03:14:31;;;;;;;25.87;19.83;;;7.10;99.90;;;6.56;100.00;95162.25;5039209;28;20463;-77
2024/02/11 03:16:59;;;;;;;24.23;19.00;;;7.10;99.90;;;6.50;100.00;95164.06;5068567;28;22589;-76
2024/02/11 03:19:26;;;;;;;23.53;18.20;;;7.10;99.90;;;6.61;100.00;95174.88;5068982;28;20453;-74
2024/02/11 03:21:53;;;;;;;22.00;18.00;;;7.20;99.90;;;6.65;100.00;95175.97;5067290;28;20476;-75
2024/02/11 03:24:21;;;;;;;27.43;20.00;;;7.20;99.90;;;6.80;100.00;95172.53;5065530;28;20456;-74
2024/02/11 03:26:48;;;;;;;25.90;19.60;;;7.30;99.90;;;6.70;100.00;95164.47;5038899;28;20519;-71
2024/02/11 03:29:19;;;;;;;26.20;18.90;;;7.30;99.90;;;6.78;100.00;95159.41;5049489;28;20446;-74
2024/02/11 03:31:48;;;;;;;22.53;18.70;;;7.30;99.90;;;6.93;100.00;95179.31;5063621;28;20459;-73
2024/02/11 03:34:15;;;;;;;24.87;19.73;;;7.40;99.90;;;6.87;100.00;95180.34;5066658;28;20855;-74
2024/02/11 03:36:42;;;;;;;26.97;20.50;;;7.40;99.90;;;6.91;100.00;95178.78;5065304;28;20461;-71
2024/02/11 03:39:10;;;;;;;26.83;20.53;;;7.50;99.90;;;6.99;100.00;95167.53;5071342;28;20457;-74
2024/02/11 03:41:37;;;;;;;23.40;20.30;;;7.60;99.90;;;7.11;100.00;95177.25;5048232;28;20449;-73
2024/02/11 03:44:05;;;;;;;25.93;21.00;;;7.70;99.90;;;7.11;100.00;95180.72;5066810;28;20449;-72
2024/02/11 03:46:33;;;;;;;32.70;20.80;;;7.70;99.90;;;6.97;100.00;95156.25;5045963;28;20482;-72
2024/02/11 03:49:02;;;;;;;28.27;21.60;;;7.70;99.90;;;7.11;100.00;95169.97;5064273;28;20804;-71
2024/02/11 03:51:31;;;;;;;26.43;20.70;;;7.80;99.90;;;7.21;100.00;95169.22;5069276;28;20459;-70
2024/02/11 03:54:01;;;;;;;26.33;20.57;;;7.80;99.90;;;7.17;100.00;95173.50;5068053;28;21044;-71
2024/02/11 03:56:29;;;;;;;25.40;20.00;;;7.80;99.90;;;7.28;100.00;95177.84;5063228;28;20969;-74
2024/02/11 03:58:56;;;;;;;24.40;19.80;;;7.90;99.90;;;7.31;100.00;95168.44;5064189;28;20465;-74
2024/02/11 04:01:24;;;;;;;29.40;20.10;;;7.90;99.90;;;7.37;100.00;95181.63;5050591;28;20638;-74
2024/02/11 04:03:51;;;;;;;26.80;20.87;;;7.90;99.90;;;7.37;100.00;95176.25;5047190;28;20530;-72
2024/02/11 04:06:21;;;;;;;26.23;21.70;;;8.00;99.90;;;7.43;100.00;95187.00;5068678;28;20510;-75
2024/02/11 04:08:50;;;;;;;31.03;21.80;;;8.00;99.90;;;7.28;100.00;95183.22;5058838;28;20449;-74
2024/02/11 04:11:19;;;;;;;26.97;21.17;;;7.90;99.90;;;7.45;100.00;95201.81;5066140;28;20543;-74
2024/02/11 04:13:47;;;;;;;25.90;21.43;;;8.00;99.90;;;7.54;100.00;95188.66;5045003;28;20482;-72
2024/02/11 04:16:16;;;;;;;26.00;20.47;;;8.10;99.90;;;7.45;100.00;95190.25;5049380;28;20445;-72
2024/02/11 04:18:45;;;;;;;28.63;22.93;;;8.10;99.90;;;7.54;100.00;95195.91;5064353;28;21052;-73
2024/02/11 04:21:15;;;;;;;28.40;22.20;;;8.10;99.90;;;7.47;100.00;95193.47;5068871;28;20459;-74
2024/02/11 04:23:46;;;;;;;28.43;22.70;;;8.10;99.90;;;7.56;100.00;95186.50;5049146;28;20449;-73
2024/02/11 04:26:14;;;;;;;29.33;21.83;;;8.20;99.90;;;7.75;100.00;95199.44;5050105;28;20532;-75
2024/02/11 04:28:42;;;;;;;27.97;22.77;;;8.20;99.90;;;7.70;100.00;95207.50;5058101;28;20446;-70
2024/02/11 04:31:10;;;;;;;29.23;20.13;;;8.30;99.90;;;7.72;100.00;95205.34;5066495;28;20481;-75
2024/02/11 04:33:38;;;;;;;31.00;21.80;;;8.30;99.90;;;7.65;100.00;95219.81;5067108;28;20479;-71
2024/02/11 04:36:09;;;;;;;24.77;20.23;;;8.20;99.90;;;7.64;100.00;95210.16;5059289;28;20535;-71
2024/02/11 04:38:36;;;;;;;28.10;19.93;;;8.20;99.90;;;7.65;100.00;95209.09;5067212;28;20511;-72
2024/02/11 04:41:06;;;;;;;26.53;21.27;;;8.20;99.90;;;7.74;100.00;95211.25;5068000;28;20457;-72
2024/02/11 04:43:34;;;;;;;25.37;19.87;;;8.20;99.90;;;7.76;100.00;95214.50;5067400;28;20476;-73
2024/02/11 04:46:03;;;;;;;23.43;18.97;;;8.30;99.90;;;7.74;100.00;95212.09;5066451;28;20518;-74
2024/02/11 04:48:31;;;;;;;22.37;18.47;;;8.30;99.90;;;7.70;100.00;95210.97;5048876;28;20446;-72
2024/02/11 04:50:59;;;;;;;22.90;19.00;;;8.20;99.90;;;7.77;100.00;95214.22;5068390;28;20449;-74
2024/02/11 04:53:29;;;;;;;22.70;19.77;;;8.20;99.90;;;7.84;100.00;95222.03;5069725;28;20579;-74
2024/02/11 04:55:57;;;;;;;22.60;20.13;;;8.30;99.90;;;7.57;100.00;95185.44;5073151;28;20476;-74
2024/02/11 04:58:30;;;;;;;26.17;20.20;;;8.30;99.90;;;7.79;100.00;95222.84;5069194;28;20455;-71
2024/02/11 05:00:58;;;;;;;24.40;20.13;;;8.40;99.90;;;7.80;100.00;95224.44;5070978;28;20449;-72
2024/02/11 05:03:27;;;;;;;23.10;18.80;;;8.30;99.90;;;7.89;100.00;95229.31;5049213;28;20438;-75
2024/02/11 05:05:54;;;;;;;23.00;19.40;;;8.30;99.90;;;7.89;100.00;95223.94;5069222;28;21013;-72
2024/02/11 05:08:22;;;;;;;26.20;19.50;;;8.30;99.90;;;7.86;100.00;95225.25;5046624;28;20468;-74
2024/02/11 05:10:51;;;;;;;23.90;20.03;;;8.40;99.90;;;7.83;100.00;95231.19;5065548;28;20457;-75
2024/02/11 05:13:19;;;;;;;26.07;19.80;;;8.40;99.90;;;7.84;100.00;95232.78;5066987;28;20472;-74
2024/02/11 05:15:49;;;;;;;24.00;18.40;;;8.30;99.90;;;7.84;100.00;95240.03;5047950;28;21031;-73
2024/02/11 05:18:18;;;;;;;21.73;19.00;;;8.30;99.90;;;7.98;100.00;95245.72;5063096;28;20889;-72
2024/02/11 05:20:46;;;;;;;26.43;18.80;;;8.40;99.90;;;7.96;100.00;95245.97;5057474;28;20494;-75
2024/02/11 05:23:15;;;;;;;24.60;18.77;;;8.40;99.90;;;7.99;100.00;95248.13;5059721;28;20457;-74
2024/02/11 05:25:44;;;;;;;24.07;18.93;;;8.40;99.90;;;7.84;100.00;95234.66;5064910;28;20553;-73
2024/02/11 05:28:13;;;;;;;24.03;19.30;;;8.40;99.90;;;7.83;100.00;95250.00;5047004;28;20457;-71
2024/02/11 05:30:42;;;;;;;24.30;19.50;;;8.30;99.90;;;7.80;100.00;95247.81;5073331;28;20498;-73
2024/02/11 05:33:13;;;;;;;23.07;19.43;;;8.30;99.90;;;7.84;100.00;95248.09;5060346;28;20519;-75
2024/02/11 05:35:40;;;;;;;23.87;18.80;;;8.30;99.90;;;7.83;100.00;95250.00;5060679;28;20453;-74
2024/02/11 05:38:09;;;;;;;23.30;19.30;;;8.30;99.90;;;7.89;100.00;95250.81;5044560;28;20449;-73
2024/02/11 05:40:41;;;;;;;30.93;22.40;;;8.30;99.90;;;7.92;100.00;95256.44;5066513;28;20456;-73
2024/02/11 05:43:09;;;;;;;22.80;19.27;;;8.40;99.90;;;7.82;100.00;95245.69;5045605;28;20476;-75
2024/02/11 05:45:38;;;;;;;22.67;18.50;;;8.30;99.90;;;7.94;100.00;95259.66;5063535;28;20442;-71
2024/02/11 05:48:06;;;;;;;26.47;19.10;;;8.40;99.90;;;7.75;100.00;95256.69;5043770;28;20541;-70
2024/02/11 05:50:36;;;;;;;22.13;18.27;;;8.40;99.90;;;7.92;100.00;95256.44;5062018;28;20448;-73
2024/02/11 05:53:05;;;;;;;23.73;20.93;;;8.40;99.90;;;7.94;100.00;95265.06;5064450;28;20476;-68
2024/02/11 05:55:32;;;;;;;25.13;18.90;;;8.40;99.90;;;7.78;100.00;95263.41;5062622;28;20542;-73
2024/02/11 05:58:00;;;;;;;25.23;19.90;;;8.40;99.90;;;7.76;100.00;95269.06;5050285;28;20526;-69
2024/02/11 06:00:29;;;;;;;24.60;18.53;;;8.40;99.90;;;7.75;100.00;95277.38;5041561;28;20552;-73
2024/02/11 06:02:57;;;;;;;27.47;20.43;;;8.40;99.90;;;7.83;100.00;95273.38;5041263;28;20861;-73
2024/02/11 06:05:26;;;;;;;29.07;20.63;;;8.40;99.90;;;7.75;100.00;95282.75;5058887;28;20513;-73
2024/02/11 06:07:59;;;;;;;29.47;20.93;;;8.40;99.90;;;7.98;100.00;95288.75;5059408;28;20515;-70
2024/02/11 06:10:29;;;;;;;28.13;21.40;;;8.40;99.90;;;8.00;100.00;95290.06;5055266;28;20467;-72
2024/02/11 06:12:57;;;;;;;23.23;18.23;;;8.50;99.90;;;7.94;100.00;95294.63;5062063;28;20487;-69
2024/02/11 06:15:27;;;;;;;28.17;21.70;;;8.60;99.90;;;7.82;100.00;95299.47;5063119;28;20464;-71
2024/02/11 06:17:57;;;;;;;24.90;18.60;;;8.50;99.90;;;7.85;100.00;95288.16;5063204;28;20484;-71
2024/02/11 06:20:25;;;;;;;27.93;21.60;;;8.50;99.90;;;7.99;100.00;95309.19;5063306;28;20476;-72
2024/02/11 06:22:53;;;;;;;23.40;19.07;;;8.50;99.90;;;8.07;100.00;95312.16;5044029;28;20452;-72
2024/02/11 06:25:23;;;;;;;19.13;16.27;;;8.60;99.90;;;7.93;100.00;95321.78;5046187;28;20546;-71
2024/02/11 06:27:51;;;;;;;20.00;14.90;;;8.60;99.90;;;7.89;100.00;95321.50;5068028;28;21217;-72
2024/02/11 06:30:20;;;;;;;13.03;10.70;;;8.50;99.90;;;7.77;100.00;95331.66;5068501;28;20440;-72
2024/02/11 06:32:49;;;;;;;8.10;4.80;;;8.40;99.90;;;7.53;100.00;95339.38;5066083;28;20461;-72
2024/02/11 06:35:18;;;;;;;3.30;2.30;;;8.30;99.90;;;7.35;100.00;95346.81;5050504;28;20453;-70
2024/02/11 06:37:48;;;;;;;1.80;1.70;;;8.10;99.90;;;7.22;100.00;95361.50;5036768;28;20492;-71
2024/02/11 06:40:16;;;;;;;1.60;1.23;;;8.00;99.90;;;7.11;100.00;95352.56;5071201;28;21040;-70
2024/02/11 06:42:50;;;;;;;1.03;0.90;;;7.90;99.90;;;7.11;100.00;95354.44;5064676;28;20492;-73
2024/02/11 06:45:18;;;;;;;1.23;0.90;;;7.80;99.90;;;7.07;100.00;95360.34;5066676;28;20446;-71
2024/02/11 06:47:46;;;;;;;0.80;0.80;;;7.80;99.90;;;6.64;100.00;95295.88;5066809;28;20454;-72
2024/02/11 06:50:15;;;;;;;1.73;0.77;;;7.80;99.90;;;7.05;100.00;95362.47;5065534;28;21003;-71
2024/02/11 06:52:43;;;;;;;1.40;1.03;;;7.80;99.90;;;7.10;100.00;95372.44;5066877;28;20546;-70
2024/02/11 06:55:11;;;;;;;1.13;1.03;;;7.70;99.90;;;7.15;100.00;95374.34;5040456;28;20491;-71
2024/02/11 06:57:39;;;;;;;1.10;1.00;;;7.80;99.90;;;7.09;100.00;95377.00;5037891;28;21177;-71
2024/02/11 07:00:11;;;;;;;1.30;1.20;;;7.80;99.90;;;7.13;100.00;95369.25;5060247;28;20468;-71
2024/02/11 07:02:40;;;;;;;1.07;0.97;;;7.80;99.90;;;7.02;100.00;95378.28;5067027;28;20451;-70
2024/02/11 07:05:09;;;;;;;0.60;0.60;;;7.70;99.90;;;6.97;100.00;95380.91;5036963;28;20469;-70
2024/02/11 07:07:36;;;;;;;0.67;0.67;;;7.70;99.90;;;6.88;100.00;95399.38;5062970;28;20490;-70
2024/02/11 07:10:06;;;;;;;1.10;1.00;;;7.60;99.90;;;6.85;100.00;95387.28;5045183;28;20463;-72
2024/02/11 07:12:33;;;;;;;0.70;0.70;;;7.60;99.90;;;6.88;100.00;95399.38;5064421;28;20482;-71
2024/02/11 07:15:04;;;;;;;0.83;0.57;;;7.60;99.90;;;6.84;100.00;95401.78;5052870;28;20820;-71
2024/02/11 07:17:35;;;;;;;0.50;0.50;;;7.50;99.80;;;6.66;100.00;95406.44;5042715;28;20456;-72
2024/02/11 07:20:02;;;;;;;0.80;0.73;;;7.50;98.80;;;6.70;100.00;95414.78;5065446;28;20475;-74
2024/02/11 07:22:29;;;;;;;0.80;0.80;;;7.50;98.30;;;6.66;100.00;95424.44;5059572;28;20530;-70
2024/02/11 07:24:57;;;;;;;6.03;1.03;;;7.40;98.70;;;6.78;100.00;95422.41;5062902;28;20456;-74
2024/02/11 07:27:26;;;;;;;0.70;0.67;;;7.40;99.10;;;6.71;100.00;95437.88;5043487;28;20578;-73
2024/02/11 07:29:54;;;;;;;1.00;0.90;;;7.50;98.70;;;6.70;100.00;95441.63;5061807;28;20481;-70
2024/02/11 07:32:21;;;;;;;0.80;0.80;;;7.40;98.80;;;6.84;100.00;95450.09;5061516;28;20522;-72
2024/02/11 07:34:50;;;;;;;1.00;1.00;;;7.50;99.70;;;6.55;100.00;95425.38;5043973;28;20476;-73
2024/02/11 07:37:18;;;;;;;1.00;0.90;;;7.50;97.80;;;6.63;100.00;95457.13;5043159;28;20437;-71
2024/02/11 07:39:46;;;;;;;0.87;0.80;;;7.40;97.30;;;6.56;100.00;95459.19;5063090;28;20456;-72
2024/02/11 07:42:13;;;;;;;1.60;1.50;;;7.30;97.50;;;6.55;100.00;95444.16;5049332;28;20436;-74
2024/02/11 07:44:40;;;;;;;1.70;1.60;;;7.30;98.00;;;6.54;100.00;95456.78;5065047;28;20470;-70
2024/02/11 07:47:10;;;;;;;1.20;1.20;;;7.30;99.40;;;6.55;100.00;95465.63;5058093;28;20894;-71
2024/02/11 07:49:37;;;;;;;1.50;1.40;;;7.30;98.40;;;6.50;100.00;95469.88;5053868;28;20917;-73
2024/02/11 07:52:07;;;;;;;1.60;1.50;;;7.20;98.20;;;6.51;100.00;95476.03;5042751;28;20449;-77
2024/02/11 07:54:34;;;;;;;1.20;1.20;;;7.20;98.70;;;6.52;100.00;95478.47;5037796;28;21131;-76
2024/02/11 07:57:01;;;;;;;1.63;1.37;;;7.20;98.70;;;6.18;100.00;95435.75;5038901;28;20957;-74
2024/02/11 07:59:29;;;;;;;2.00;1.70;;;7.20;97.80;;;6.37;100.00;95465.72;5060228;28;20475;-76
2024/02/11 08:01:56;;;;;;;2.20;1.67;;;7.20;98.00;;;6.40;100.00;95495.78;5062339;28;20449;-77
2024/02/11 08:04:24;;;;;;;1.70;1.60;;;7.20;97.50;;;6.33;100.00;95491.41;5061241;28;20452;-77
2024/02/11 08:06:51;;;;;;;1.87;1.77;;;7.10;97.60;;;6.32;100.00;95499.72;5044218;28;20801;-75
2024/02/11 08:09:19;;;;;;;1.90;1.80;;;7.10;97.60;;;6.22;100.00;95501.19;5057214;28;20456;-78
2024/02/11 08:11:47;;;;;;;2.13;1.97;;;7.10;98.10;;;6.37;100.00;95507.81;5041150;28;21235;-76
2024/02/11 08:14:14;;;;;;;2.57;2.37;;;7.10;98.60;;;6.17;100.00;95468.97;5062399;28;20519;-75
2024/02/11 08:16:42;;;;;;;2.10;1.80;;;7.10;99.00;;;6.30;100.00;95512.56;5065734;28;20436;-76
2024/02/11 08:19:10;;;;;;;1.87;1.73;;;7.10;98.90;;;6.10;100.00;95454.94;5039540;28;20815;-77
2024/02/11 08:21:37;;;;;;;2.53;2.33;;;7.10;98.30;;;6.39;100.00;95516.41;5061926;28;20487;-75
2024/02/11 08:24:06;;;;;;;1.90;1.80;;;7.20;97.50;;;6.43;100.00;95519.41;5065348;28;20521;-76
2024/02/11 08:26:35;;;;;;;1.90;1.80;;;7.10;97.40;;;6.52;100.00;95534.81;5058787;28;20449;-74
2024/02/11 08:29:03;;;;;;;2.10;1.90;;;7.20;98.10;;;6.36;100.00;95533.00;5041361;28;21116;-74
2024/02/11 08:31:31;;;;;;;3.30;3.00;;;7.10;97.00;;;6.49;100.00;95531.81;5063349;28;20472;-74
2024/02/11 08:33:58;;;;;;;2.37;2.17;;;7.20;97.90;;;6.51;100.00;95541.25;5063688;28;20480;-72
2024/02/11 08:36:25;;;;;;;2.43;2.10;;;7.20;98.10;;;6.49;100.00;95543.38;5060064;28;20825;-78
2024/02/11 08:38:53;;;;;;;1.80;1.70;;;7.20;97.20;;;6.42;100.00;95545.41;5046602;28;20467;-78
2024/02/11 08:41:20;;;;;;;2.13;2.00;;;7.20;95.70;;;6.35;100.00;95544.81;5059872;28;20551;-76
2024/02/11 08:43:49;;;;;;;2.10;1.97;;;7.20;96.10;;;6.34;100.00;95551.22;5060794;28;20464;-75
2024/02/11 08:46:16;;;;;;;1.70;1.60;;;7.20;95.90;;;6.28;100.00;95558.41;5061387;28;20495;-76
2024/02/11 08:48:43;;;;;;;2.30;2.10;;;7.10;95.60;;;6.14;100.00;95522.28;5038820;28;20441;-77
2024/02/11 08:51:15;;;;;;;2.10;2.00;;;7.10;96.00;;;6.29;100.00;95549.28;5063328;28;20456;-76
2024/02/11 08:53:42;;;;;;;2.23;2.07;;;7.10;96.80;;;6.32;100.00;95548.00;5061177;28;20575;-76
2024/02/11 08:56:10;;;;;;;2.40;2.20;;;7.10;96.50;;;6.36;100.00;95560.63;5061492;28;20551;-76
2024/02/11 08:58:37;;;;;;;2.73;2.10;;;7.10;96.30;;;6.42;100.00;95552.66;5041854;28;20465;-76
2024/02/11 09:01:06;;;;;;;2.53;2.33;;;7.20;96.60;;;6.16;100.00;95501.38;5043363;28;20450;-80
2024/02/11 09:03:34;;;;;;;2.63;2.43;;;7.30;96.60;;;6.49;100.00;95532.63;5058994;28;20491;-77
2024/02/11 09:06:04;;;;;;;4.13;2.70;;;7.40;96.90;;;6.79;100.00;95568.13;5047834;28;20444;-77
2024/02/11 09:08:32;;;;;;;3.43;3.03;;;7.50;96.80;;;6.64;100.00;95582.19;5041497;28;20539;-75
2024/02/11 09:11:03;;;;;;;2.80;2.60;;;7.40;95.30;;;6.56;100.00;95564.66;5063161;28;20461;-75
2024/02/11 09:13:33;;;;;;;4.27;2.93;;;7.40;95.70;;;6.55;100.00;95572.94;5055687;28;20528;-76
2024/02/11 09:16:01;;;;;;;3.63;2.87;;;7.40;95.80;;;6.49;100.00;95559.47;5039737;28;20448;-77
2024/02/11 09:18:29;;;;;;;3.50;3.20;;;7.40;95.50;;;6.68;100.00;95591.34;5053621;28;20804;-73
2024/02/11 09:20:57;;;;;;;2.93;2.60;;;7.40;95.70;;;6.72;100.00;95595.13;5058346;28;20461;-76
2024/02/11 09:23:25;;;;;;;3.60;3.30;;;7.40;95.80;;;6.87;100.00;95591.84;5062776;28;20467;-74
2024/02/11 09:25:52;;;;;;;5.13;3.30;;;7.50;96.00;;;6.75;100.00;95594.66;5046809;28;20447;-75
2024/02/11 09:28:20;;;;;;;3.90;3.50;;;7.50;95.40;;;6.39;100.00;95548.59;5058611;28;21020;-77
2024/02/11 09:30:48;;;;;;;4.07;3.77;;;7.50;95.40;;;6.82;100.00;95605.19;5062631;28;20487;-76
2024/02/11 09:33:15;;;;;;;5.00;4.50;;;7.50;95.60;;;7.03;100.00;95606.22;5064434;28;20506;-78
2024/02/11 09:35:44;;;;;;;3.30;2.97;;;7.70;97.00;;;7.01;99.34;95610.25;5066024;28;20480;-78
2024/02/11 09:38:14;;;;;;;3.27;3.07;;;7.70;95.40;;;6.91;98.08;95598.31;5062688;28;20525;-74
2024/02/11 09:40:43;;;;;;;4.30;3.63;;;7.60;94.30;;;7.39;98.50;95618.41;5038236;28;20461;-81
2024/02/11 09:43:11;;;;;;;3.30;3.00;;;7.90;95.10;;;7.11;95.52;95622.97;5058150;28;20460;-74
2024/02/11 09:45:40;;;;;;;3.57;2.60;;;7.90;92.70;;;6.97;96.11;95627.91;5042351;28;20453;-82
2024/02/11 09:48:09;;;;;;;3.83;3.33;;;7.80;92.40;;;7.07;95.93;95626.16;5059723;28;20489;-73
2024/02/11 09:50:38;;;;;;;2.57;2.37;;;7.80;92.90;;;6.92;97.92;95636.72;5056791;28;20555;-73
2024/02/11 09:53:08;;;;;;;3.23;2.93;;;7.70;93.40;;;6.91;96.17;95629.75;5057017;28;20464;-75
2024/02/11 09:55:37;;;;;;;3.30;3.00;;;7.60;93.10;;;7.05;95.67;95641.72;5057113;28;20488;-82
2024/02/11 09:58:05;;;;;;;3.70;3.37;;;7.70;93.10;;;6.63;96.24;95593.97;5040722;28;20966;-73
2024/02/11 10:00:32;;;;;;;5.13;3.10;;;7.70;93.10;;;6.98;96.17;95646.44;5054404;28;21737;-74
2024/02/11 10:03:03;;;;;;;3.47;3.07;;;7.70;92.80;;;6.98;95.09;95630.34;5055522;28;20538;-74
2024/02/11 10:05:34;;;;;;;3.43;2.43;;;7.80;92.80;;;7.07;94.56;95650.34;5057423;28;20467;-73
2024/02/11 10:08:11;;;;;;;3.20;3.00;;;7.80;92.30;;;7.20;95.95;95642.91;5050522;28;20482;-70
2024/02/11 10:10:39;;;;;;;3.77;3.37;;;7.90;93.00;;;7.14;94.70;95660.06;5064903;28;20956;-73
2024/02/11 10:13:07;;;;;;;6.13;3.73;;;7.90;92.40;;;7.11;96.30;95655.19;5061944;28;20478;-74
2024/02/11 10:15:38;;;;;;;3.80;3.47;;;7.80;92.90;;;7.17;95.74;95659.53;5066183;28;21003;-73
2024/02/11 10:18:10;;;;;;;4.53;3.57;;;7.80;92.70;;;6.95;95.05;95620.13;5064449;28;20463;-77
2024/02/11 10:20:37;;;;;;;4.03;3.63;;;7.90;92.70;;;7.06;95.56;95666.69;5039687;28;20484;-69
2024/02/11 10:23:06;;;;;;;5.67;3.80;;;7.80;92.40;;;7.21;95.38;95663.38;5036048;28;20461;-73